createdAt,value
2018-02-07T15:37:58.647Z,9.75
2018-02-07T15:40:27.208Z,11.65
2018-02-07T15:42:54.874Z,10.43
2018-02-07T15:45:22.584Z,7.45
2018-02-07T15:47:50.555Z,8.60
2018-02-07T15:50:19.555Z,10.73
2018-02-07T15:52:47.237Z,10.15
2018-02-07T15:55:18.910Z,14.10
2018-02-07T15:57:46.572Z,10.98
2018-02-07T16:00:14.386Z,14.07
2018-02-07T16:02:56.307Z,14.18
2018-02-07T16:05:23.999Z,12.68
2018-02-07T16:07:51.627Z,9.75
2018-02-07T16:10:25.943Z,8.27
2018-02-07T16:12:53.947Z,9.32
2018-02-07T16:15:21.630Z,9.05
2018-02-07T16:17:49.293Z,15.77
2018-02-07T16:20:16.996Z,7.10
2018-02-07T16:22:44.660Z,9.40
2018-02-07T16:25:13.272Z,9.43
2018-02-07T16:27:41.515Z,5.80
2018-02-07T16:30:10.529Z,28.20
2018-02-07T16:32:38.217Z,13.40
2018-02-07T16:35:12.521Z,16.17
2018-02-07T16:37:41.333Z,19.58
2018-02-07T16:40:09.125Z,12.00
2018-02-07T16:42:41.854Z,12.30
2018-02-07T16:45:28.708Z,8.77
2018-02-07T16:47:56.542Z,13.45
2018-02-07T16:50:24.469Z,10.65
2018-02-07T16:52:52.588Z,12.50
2018-02-07T16:55:21.024Z,14.50
2018-02-07T16:57:49.598Z,21.23
2018-02-07T17:00:17.279Z,13.18
2018-02-07T17:02:45.018Z,16.52
2018-02-07T17:05:12.687Z,19.95
2018-02-07T17:07:40.331Z,19.85
2018-02-07T17:10:08.002Z,16.70
2018-02-07T17:12:36.016Z,15.93
2018-02-07T17:15:03.682Z,14.20
2018-02-07T17:17:31.351Z,14.07
2018-02-07T17:19:59.087Z,14.30
2018-02-07T17:22:26.963Z,14.07
2018-02-07T17:24:54.624Z,15.50
2018-02-07T17:27:23.072Z,13.05
2018-02-07T17:29:50.702Z,12.77
2018-02-07T17:32:19.462Z,17.65
2018-02-07T17:34:47.058Z,18.12
2018-02-07T17:37:15.440Z,15.40
2018-02-07T17:39:43.360Z,15.43
2018-02-07T17:42:12.110Z,22.20
2018-02-07T17:44:39.756Z,23.05
2018-02-07T17:47:07.912Z,16.77
2018-02-07T17:49:35.559Z,15.55
2018-02-07T17:52:03.298Z,18.95
2018-02-07T17:54:31.354Z,16.77
2018-02-07T17:56:58.995Z,17.87
2018-02-07T17:59:26.582Z,13.85
2018-02-07T18:01:54.217Z,13.18
2018-02-07T18:04:21.878Z,14.25
2018-02-07T18:06:49.516Z,13.35
2018-02-07T18:09:17.546Z,15.18
2018-02-07T18:11:45.297Z,24.10
2018-02-07T18:14:12.887Z,15.10
2018-02-07T18:16:41.017Z,17.85
2018-02-07T18:19:08.696Z,23.98
2018-02-07T18:21:37.000Z,23.62
2018-02-07T18:24:05.324Z,23.90
2018-02-07T18:26:33.477Z,20.10
2018-02-07T18:29:01.093Z,18.15
2018-02-07T18:31:28.908Z,12.68
2018-02-07T18:33:56.535Z,13.55
2018-02-07T18:36:24.210Z,11.40
2018-02-07T18:38:51.834Z,11.65
2018-02-07T18:41:19.453Z,10.20
2018-02-07T18:43:47.210Z,13.52
2018-02-07T18:46:15.075Z,13.65
2018-02-07T18:48:42.721Z,16.17
2018-02-07T18:51:10.330Z,12.93
2018-02-07T18:53:38.362Z,17.40
2018-02-07T18:56:05.977Z,23.70
2018-02-07T18:58:33.660Z,27.75
2018-02-07T19:01:01.348Z,34.45
2018-02-07T19:03:28.947Z,22.62
2018-02-07T19:05:56.692Z,26.80
2018-02-07T19:08:24.339Z,26.12
2018-02-07T19:10:51.927Z,21.35
2018-02-07T19:13:19.587Z,20.33
2018-02-07T19:15:47.232Z,22.58
2018-02-07T19:18:14.848Z,25.20
2018-02-07T19:20:42.544Z,16.67
2018-02-07T19:23:10.188Z,16.73
2018-02-07T19:25:37.840Z,18.52
2018-02-07T19:28:05.423Z,16.92
2018-02-07T19:30:33.065Z,13.88
2018-02-07T19:33:01.065Z,17.83
2018-02-07T19:35:28.973Z,16.42
2018-02-07T19:37:56.594Z,23.02
2018-02-07T19:40:24.192Z,25.40
2018-02-07T19:42:51.826Z,19.70
2018-02-07T19:45:20.021Z,30.25
2018-02-07T19:47:47.625Z,28.10
2018-02-07T19:50:15.225Z,23.33
2018-02-07T19:52:42.891Z,20.42
2018-02-07T19:55:10.508Z,21.75
2018-02-07T19:57:38.215Z,19.27
2018-02-07T20:00:06.172Z,18.17
2018-02-07T20:02:33.786Z,21.92
2018-02-07T20:05:01.500Z,20.58
2018-02-07T20:07:29.383Z,22.80
2018-02-07T20:09:56.958Z,22.92
2018-02-07T20:12:24.611Z,23.23
2018-02-07T20:14:52.185Z,22.98
2018-02-07T20:17:19.772Z,31.48
2018-02-07T20:19:47.465Z,42.53
2018-02-07T20:22:15.168Z,43.58
2018-02-07T20:24:42.819Z,46.33
2018-02-07T20:27:10.651Z,36.33
2018-02-07T20:29:38.278Z,40.08
2018-02-07T20:32:06.196Z,40.00
2018-02-07T20:34:34.305Z,43.47
2018-02-07T20:37:01.996Z,45.97
2018-02-07T20:39:29.923Z,36.97
2018-02-07T20:41:57.565Z,44.40
2018-02-07T20:44:25.598Z,41.30
2018-02-07T20:46:53.316Z,36.22
2018-02-07T20:49:21.014Z,31.02
2018-02-07T20:51:48.678Z,19.62
2018-02-07T20:54:16.323Z,27.48
2018-02-07T20:56:44.005Z,23.92
2018-02-07T20:59:13.224Z,28.30
2018-02-07T21:01:41.715Z,32.08
2018-02-07T21:04:09.990Z,33.67
2018-02-07T21:06:37.662Z,35.45
2018-02-07T21:09:05.424Z,35.47
2018-02-07T21:11:33.047Z,30.05
2018-02-07T21:14:00.657Z,33.90
2018-02-07T21:16:28.431Z,33.92
2018-02-07T21:18:56.076Z,34.63
2018-02-07T21:21:23.702Z,34.25
2018-02-07T21:23:51.381Z,39.72
2018-02-07T21:26:19.091Z,34.22
2018-02-07T21:28:47.018Z,34.55
2018-02-07T21:31:14.642Z,38.38
2018-02-07T21:33:42.234Z,30.67
2018-02-07T21:36:10.043Z,30.75
2018-02-07T21:38:37.925Z,31.60
2018-02-07T21:41:05.519Z,33.10
2018-02-07T21:43:33.166Z,40.00
2018-02-07T21:46:00.756Z,32.63
2018-02-07T21:48:28.409Z,28.23
2018-02-07T21:51:00.182Z,30.75
2018-02-07T21:53:33.858Z,30.77
2018-02-07T21:56:01.741Z,26.40
2018-02-07T21:58:29.379Z,27.45
2018-02-07T22:00:57.281Z,30.98
2018-02-07T22:03:24.922Z,26.85
2018-02-07T22:05:52.538Z,28.60
2018-02-07T22:08:20.496Z,21.95
2018-02-07T22:10:48.209Z,24.05
2018-02-07T22:13:15.815Z,22.20
2018-02-07T22:15:43.463Z,21.25
2018-02-07T22:18:11.084Z,23.17
2018-02-07T22:20:38.678Z,23.73
2018-02-07T22:23:06.251Z,24.83
2018-02-07T22:25:34.224Z,24.42
2018-02-07T22:28:01.811Z,22.40
2018-02-07T22:30:29.623Z,24.02
2018-02-07T22:32:57.196Z,26.70
2018-02-07T22:35:24.770Z,22.67
2018-02-07T22:37:52.393Z,23.85
2018-02-07T22:40:20.121Z,31.90
2018-02-07T22:42:47.765Z,38.33
2018-02-07T22:45:15.371Z,30.85
2018-02-07T22:47:42.938Z,38.13
2018-02-07T22:50:11.040Z,32.08
2018-02-07T22:52:38.619Z,27.77
2018-02-07T22:55:06.261Z,29.92
2018-02-07T22:57:33.897Z,29.23
2018-02-07T23:00:01.550Z,25.10
2018-02-07T23:02:29.257Z,26.62
2018-02-07T23:04:56.833Z,27.37
2018-02-07T23:07:24.530Z,31.05
2018-02-07T23:09:52.294Z,28.65
2018-02-07T23:12:20.090Z,31.62
2018-02-07T23:14:47.765Z,27.73
2018-02-07T23:17:15.419Z,25.80
2018-02-07T23:19:43.262Z,30.52
2018-02-07T23:22:11.511Z,28.27
2018-02-07T23:24:39.435Z,28.67
2018-02-07T23:27:07.034Z,27.05
2018-02-07T23:29:34.654Z,23.92
2018-02-07T23:32:02.255Z,22.87
2018-02-07T23:34:31.133Z,22.67
2018-02-07T23:39:32.720Z,22.67
2018-02-07T23:42:00.321Z,23.77
2018-02-07T23:44:28.936Z,24.35
2018-02-07T23:46:57.380Z,18.67
2018-02-07T23:49:25.053Z,21.20
2018-02-07T23:51:52.667Z,22.67
2018-02-07T23:54:20.347Z,23.23
2018-02-07T23:56:47.962Z,19.85
2018-02-07T23:59:15.707Z,21.62
